createdAt,value
2019-02-26T00:00:26.160Z,1.1
2019-02-26T00:01:35.039Z,1.4
2019-02-26T00:02:46.488Z,1.5
2019-02-26T00:03:55.061Z,0.8
2019-02-26T00:05:04.555Z,0.8
2019-02-26T00:06:16.044Z,1
2019-02-26T00:07:25.255Z,1.4
2019-02-26T00:08:35.060Z,1.1
2019-02-26T00:09:44.572Z,1
2019-02-26T00:10:55.221Z,0.9
2019-02-26T00:12:04.593Z,1.1
2019-02-26T00:13:14.111Z,1
2019-02-26T00:14:24.863Z,1
2019-02-26T00:15:35.728Z,0.9
2019-02-26T00:16:46.645Z,1.5
2019-02-26T00:17:55.073Z,1
2019-02-26T00:19:05.006Z,1
2019-02-26T00:20:15.632Z,1
2019-02-26T00:21:26.078Z,1
2019-02-26T00:22:36.685Z,1.4
2019-02-26T00:23:46.531Z,1
2019-02-26T00:24:56.057Z,0.9
2019-02-26T00:26:05.558Z,0.8
2019-02-26T00:27:15.080Z,1.2
2019-02-26T00:28:24.580Z,1
2019-02-26T00:29:35.052Z,0.9
2019-02-26T00:30:44.554Z,1.2
2019-02-26T00:31:56.041Z,1.1
2019-02-26T00:33:05.211Z,1.3
2019-02-26T00:34:15.964Z,1.4
2019-02-26T00:35:25.234Z,1
2019-02-26T00:36:36.326Z,1.3
2019-02-26T00:37:46.573Z,1.3
2019-02-26T00:38:56.124Z,0.9
2019-02-26T00:40:07.816Z,1
2019-02-26T00:41:20.271Z,1.1
2019-02-26T00:42:28.751Z,1.3
2019-02-26T00:43:38.022Z,1
2019-02-26T00:44:51.298Z,1.5
2019-02-26T00:45:58.807Z,1.2
2019-02-26T00:47:08.953Z,1.2
2019-02-26T00:48:18.016Z,0.8
2019-02-26T00:49:28.414Z,0.9
2019-02-26T00:50:39.776Z,1
2019-02-26T00:51:50.586Z,0.8
2019-02-26T00:52:59.911Z,1.1
2019-02-26T00:54:09.460Z,1.2
2019-02-26T00:55:18.970Z,1.2
2019-02-26T00:56:29.751Z,1.2
2019-02-26T00:57:40.586Z,1.1
2019-02-26T00:58:50.370Z,1.2
2019-02-26T01:00:00.757Z,1.1
2019-02-26T01:01:12.478Z,1.3
2019-02-26T01:02:20.973Z,1.3
2019-02-26T01:03:30.529Z,1
2019-02-26T01:04:41.444Z,1
2019-02-26T01:05:50.517Z,1.1
2019-02-26T01:07:01.178Z,1.1
2019-02-26T01:08:12.799Z,1.4
2019-02-26T01:09:22.622Z,1.1
2019-02-26T01:10:31.532Z,1.1
2019-02-26T01:11:42.812Z,1.5
2019-02-26T01:12:51.597Z,1.1
2019-02-26T01:14:01.087Z,1
2019-02-26T01:15:11.568Z,1.3
2019-02-26T01:16:21.086Z,1.6
2019-02-26T01:17:31.168Z,1.3
2019-02-26T01:18:42.158Z,1.2
2019-02-26T01:19:51.653Z,0.9
2019-02-26T01:21:02.386Z,0.9
2019-02-26T01:22:11.651Z,1.1
2019-02-26T01:23:23.796Z,1.5
2019-02-26T01:24:32.700Z,1.1
2019-02-26T01:25:42.133Z,1.1
2019-02-26T01:26:51.639Z,1.1
2019-02-26T01:28:01.140Z,1.2
2019-02-26T01:29:10.673Z,1.3
2019-02-26T01:30:23.485Z,1.1
2019-02-26T01:31:32.001Z,1.1
2019-02-26T01:32:41.177Z,1
2019-02-26T01:33:51.210Z,0.8
2019-02-26T01:35:03.286Z,1.1
2019-02-26T01:36:11.691Z,0.9
2019-02-26T01:37:21.207Z,1.1
2019-02-26T01:38:30.737Z,0.9
2019-02-26T01:39:42.168Z,0.4
2019-02-26T01:40:51.765Z,1
2019-02-26T01:42:01.196Z,1
2019-02-26T01:43:10.734Z,0.8
2019-02-26T01:44:20.241Z,1.2
2019-02-26T01:45:31.767Z,0.8
2019-02-26T01:46:41.110Z,1.1
2019-02-26T01:47:52.670Z,1
2019-02-26T01:49:02.082Z,0.8
2019-02-26T01:50:13.315Z,0.8
2019-02-26T01:51:23.933Z,0.5
2019-02-26T01:52:32.687Z,1.1
2019-02-26T01:53:44.102Z,0.9
2019-02-26T01:54:53.433Z,0.8
2019-02-26T01:56:05.074Z,0.6
2019-02-26T01:57:13.693Z,0.7
2019-02-26T01:58:23.223Z,0.7
2019-02-26T01:59:34.495Z,0.8
2019-02-26T02:00:43.226Z,1
2019-02-26T02:01:53.695Z,1.1
2019-02-26T02:03:03.275Z,0.9
2019-02-26T02:04:14.579Z,1.1
2019-02-26T02:05:23.772Z,0.8
2019-02-26T02:06:34.848Z,0.8
2019-02-26T02:07:46.504Z,1.1
2019-02-26T02:08:55.665Z,1
2019-02-26T02:10:05.207Z,0.8
2019-02-26T02:11:14.703Z,1
2019-02-26T02:12:25.929Z,0.9
2019-02-26T02:13:35.770Z,0.7
2019-02-26T02:14:45.201Z,0.8
2019-02-26T02:15:54.731Z,1
2019-02-26T02:17:06.028Z,0.7
2019-02-26T02:18:14.757Z,0.9
2019-02-26T02:19:25.619Z,0.9
2019-02-26T02:20:34.753Z,0.9
2019-02-26T02:21:44.257Z,1.1
2019-02-26T02:22:53.765Z,0.8
2019-02-26T02:24:03.301Z,1.1
2019-02-26T02:25:12.837Z,0.8
2019-02-26T02:26:22.336Z,1.3
2019-02-26T02:27:33.176Z,0.8
2019-02-26T02:28:42.416Z,0.8
2019-02-26T02:29:54.871Z,1
2019-02-26T02:31:03.390Z,1
2019-02-26T02:32:12.887Z,0.7
2019-02-26T02:33:24.014Z,1
2019-02-26T02:34:36.547Z,0.7
2019-02-26T02:35:43.447Z,0.7
2019-02-26T02:36:52.956Z,0.9
2019-02-26T02:38:04.745Z,1
2019-02-26T02:39:15.294Z,0.6
2019-02-26T02:40:23.492Z,0.9
2019-02-26T02:41:33.030Z,0.4
2019-02-26T02:42:43.088Z,0.7
2019-02-26T02:43:53.098Z,0.7
2019-02-26T02:45:05.145Z,0.8
2019-02-26T02:46:14.097Z,1.1
2019-02-26T02:47:25.179Z,1
2019-02-26T02:48:34.154Z,0.8
2019-02-26T02:49:44.343Z,0.9
2019-02-26T02:50:53.162Z,0.7
2019-02-26T02:52:04.140Z,0.6
2019-02-26T02:53:13.279Z,0.8
2019-02-26T02:54:23.609Z,0.3
2019-02-26T02:55:33.356Z,0.7
2019-02-26T02:56:44.329Z,0.9
2019-02-26T02:57:55.074Z,0.8
2019-02-26T02:59:05.812Z,0.8
2019-02-26T03:00:14.313Z,0.7
2019-02-26T03:01:25.672Z,0.4
2019-02-26T03:02:37.428Z,0.7
2019-02-26T03:03:45.207Z,0.6
2019-02-26T03:04:54.362Z,0.5
2019-02-26T03:06:04.831Z,0.7
2019-02-26T03:07:15.208Z,0.8
2019-02-26T03:08:24.853Z,1.2
2019-02-26T03:09:37.658Z,0.9
2019-02-26T03:10:45.011Z,0.8
2019-02-26T03:11:55.009Z,0.9
2019-02-26T03:13:03.853Z,0.6
2019-02-26T03:14:13.994Z,1
2019-02-26T03:15:26.080Z,1.2
2019-02-26T03:16:34.351Z,0.8
2019-02-26T03:17:43.866Z,0.6
2019-02-26T03:18:53.374Z,0.8
2019-02-26T03:20:04.822Z,0.6
2019-02-26T03:21:13.407Z,0.7
2019-02-26T03:22:22.895Z,0.8
2019-02-26T03:23:33.873Z,0.7
2019-02-26T03:24:42.947Z,1
2019-02-26T03:25:54.873Z,0.7
2019-02-26T03:27:03.034Z,1
2019-02-26T03:28:12.563Z,0.9
2019-02-26T03:29:22.123Z,0.8
2019-02-26T03:30:37.095Z,0.5
2019-02-26T03:31:46.374Z,0.9
2019-02-26T03:32:57.964Z,0.8
2019-02-26T03:34:08.590Z,0.9
2019-02-26T03:35:15.906Z,0.7
2019-02-26T03:36:24.072Z,0.4
2019-02-26T03:37:34.471Z,0.8
2019-02-26T03:38:48.203Z,1.4
2019-02-26T03:39:55.247Z,0.8
2019-02-26T03:41:05.027Z,1
2019-02-26T03:42:16.614Z,0.5
2019-02-26T03:43:26.039Z,0.9
2019-02-26T03:44:36.527Z,0.8
2019-02-26T03:45:47.974Z,0.6
2019-02-26T03:46:56.569Z,0.8
2019-02-26T03:48:06.097Z,0.9
2019-02-26T03:49:15.634Z,0.6
2019-02-26T03:50:27.051Z,0.9
2019-02-26T03:51:39.069Z,0.8
2019-02-26T03:52:46.275Z,1.1
2019-02-26T03:53:55.822Z,0.7
2019-02-26T03:55:06.618Z,0.7
2019-02-26T03:56:18.203Z,0.8
2019-02-26T03:57:26.370Z,0.5
2019-02-26T03:58:35.882Z,0.9
2019-02-26T03:59:45.426Z,0.7
2019-02-26T04:00:54.990Z,0.7
2019-02-26T04:02:04.500Z,0.6
2019-02-26T04:03:15.083Z,0.5
2019-02-26T04:04:26.068Z,0.8
2019-02-26T04:05:35.006Z,0.7
2019-02-26T04:06:46.966Z,0.5
2019-02-26T04:07:55.629Z,0.8
2019-02-26T04:09:05.478Z,0.9
2019-02-26T04:10:15.022Z,0.5
2019-02-26T04:11:25.540Z,0.7
2019-02-26T04:12:36.697Z,0.6
2019-02-26T04:13:45.908Z,0.4
2019-02-26T04:14:56.007Z,0.9
2019-02-26T04:16:05.520Z,1.1
2019-02-26T04:17:15.027Z,0.5
2019-02-26T04:18:24.542Z,0.7
2019-02-26T04:19:34.038Z,0.5
2019-02-26T04:20:44.369Z,0.8
2019-02-26T04:21:53.063Z,0.6
2019-02-26T04:23:02.577Z,0.6
2019-02-26T04:24:12.045Z,0.6
2019-02-26T04:25:22.606Z,0.4
2019-02-26T04:26:34.976Z,0.7
2019-02-26T04:27:44.142Z,0.6
2019-02-26T04:28:53.326Z,0.6
2019-02-26T04:30:03.090Z,0.7
2019-02-26T04:31:12.687Z,0.7
2019-02-26T04:32:23.245Z,0.4
2019-02-26T04:33:33.303Z,0.5
2019-02-26T04:34:43.152Z,1.1
2019-02-26T04:35:55.008Z,1.1
2019-02-26T04:37:04.737Z,0.6
2019-02-26T04:38:13.709Z,0.7
2019-02-26T04:39:23.195Z,0.5
2019-02-26T04:40:33.617Z,0.3
2019-02-26T04:41:43.311Z,0.6
2019-02-26T04:42:52.811Z,0.5
2019-02-26T04:44:03.715Z,1
2019-02-26T04:45:12.843Z,0.7
2019-02-26T04:46:22.397Z,0.6
2019-02-26T04:47:33.684Z,0.7
2019-02-26T04:48:42.458Z,0.5
2019-02-26T04:49:54.163Z,0.6
2019-02-26T04:51:02.569Z,0.5
2019-02-26T04:52:14.265Z,0.5
2019-02-26T04:53:23.325Z,0.6
2019-02-26T04:54:33.703Z,0.6
2019-02-26T04:55:44.850Z,0.7
2019-02-26T04:56:54.026Z,0.3
2019-02-26T04:58:03.560Z,0.7
2019-02-26T04:59:14.964Z,0.4
2019-02-26T05:00:26.222Z,0.7
2019-02-26T05:01:34.766Z,0.8
2019-02-26T05:02:43.560Z,0.7
2019-02-26T05:03:53.091Z,0.9
2019-02-26T05:05:02.627Z,0.7
2019-02-26T05:06:12.109Z,0.5
2019-02-26T05:07:21.624Z,0.6
2019-02-26T05:08:32.033Z,0.7
2019-02-26T05:09:41.666Z,0.8
2019-02-26T05:10:52.316Z,0.9
2019-02-26T05:12:01.687Z,1
2019-02-26T05:13:11.173Z,0.8
2019-02-26T05:14:23.037Z,0.8
2019-02-26T05:15:33.208Z,0.4
2019-02-26T05:16:41.627Z,0.7
2019-02-26T05:17:52.124Z,0.7
2019-02-26T05:19:01.647Z,0.6
2019-02-26T05:20:13.364Z,0.8
2019-02-26T05:21:21.627Z,0.6
2019-02-26T05:22:33.344Z,0.5
2019-02-26T05:23:41.634Z,0.6
2019-02-26T05:24:52.780Z,0.9
2019-02-26T05:26:05.119Z,0.9
2019-02-26T05:27:13.140Z,0.7
2019-02-26T05:28:22.604Z,0.7
2019-02-26T05:29:32.137Z,0.7
2019-02-26T05:30:43.684Z,1
2019-02-26T05:31:52.162Z,1
2019-02-26T05:33:02.925Z,1.1
2019-02-26T05:34:14.409Z,1.4
2019-02-26T05:35:25.169Z,2.6
2019-02-26T05:36:34.460Z,1.9
2019-02-26T05:37:43.938Z,1.2
2019-02-26T05:38:55.243Z,0.9
2019-02-26T05:40:07.019Z,0.8
2019-02-26T05:41:15.410Z,1
2019-02-26T05:42:24.929Z,0.6
2019-02-26T05:43:34.420Z,0.7
2019-02-26T05:44:43.977Z,0.7
2019-02-26T05:45:54.652Z,0.7
2019-02-26T05:47:03.923Z,0.8
2019-02-26T05:48:15.962Z,1
2019-02-26T05:49:23.950Z,0.7
2019-02-26T05:50:35.390Z,0.8
2019-02-26T05:51:43.968Z,0.7
2019-02-26T05:52:57.419Z,0.7
2019-02-26T05:54:07.625Z,0.8
2019-02-26T05:55:16.751Z,1.1
2019-02-26T05:56:24.901Z,1.2
2019-02-26T05:57:34.415Z,2.1
2019-02-26T05:58:46.413Z,2.3
2019-02-26T05:59:54.483Z,2.8
2019-02-26T06:01:03.986Z,1.4
2019-02-26T06:02:16.114Z,1.4
2019-02-26T06:03:24.004Z,0.7
2019-02-26T06:04:35.081Z,1
2019-02-26T06:05:46.352Z,0.8
2019-02-26T06:06:56.193Z,0.5
2019-02-26T06:08:04.980Z,0.6
2019-02-26T06:09:14.481Z,0.8
2019-02-26T06:10:24.995Z,0.6
2019-02-26T06:11:36.744Z,0.7
2019-02-26T06:12:46.652Z,0.7
2019-02-26T06:13:56.444Z,0.8
2019-02-26T06:15:07.981Z,0.7
2019-02-26T06:16:16.470Z,0.7
2019-02-26T06:17:25.965Z,0.8
2019-02-26T06:18:35.490Z,0.9
2019-02-26T06:19:45.174Z,1
2019-02-26T06:20:55.889Z,0.6
2019-02-26T06:22:05.008Z,0.6
2019-02-26T06:23:14.524Z,0.7
2019-02-26T06:24:24.738Z,1.4
2019-02-26T06:25:34.553Z,1
2019-02-26T06:26:45.504Z,1.3
2019-02-26T06:27:54.567Z,0.8
2019-02-26T06:29:04.068Z,0.8
2019-02-26T06:30:13.574Z,0.9
2019-02-26T06:31:24.887Z,1
2019-02-26T06:32:35.124Z,1
2019-02-26T06:33:45.776Z,0.7
2019-02-26T06:34:54.518Z,1.1
2019-02-26T06:36:04.734Z,0.6
2019-02-26T06:37:16.368Z,0.7
2019-02-26T06:38:26.243Z,1
2019-02-26T06:39:36.245Z,0.9
2019-02-26T06:40:46.853Z,0.5
2019-02-26T06:41:55.559Z,0.9
2019-02-26T06:43:05.073Z,0.6
2019-02-26T06:44:14.601Z,1.2
2019-02-26T06:45:24.146Z,1.1
2019-02-26T06:46:34.172Z,0.9
2019-02-26T06:47:45.523Z,0.7
2019-02-26T06:48:54.664Z,0.6
2019-02-26T06:50:06.055Z,0.9
2019-02-26T06:51:14.686Z,0.8
2019-02-26T06:52:24.205Z,1.1
2019-02-26T06:53:33.727Z,1.1
2019-02-26T06:54:47.628Z,1.1
2019-02-26T06:55:53.746Z,0.8
2019-02-26T06:57:03.264Z,1
2019-02-26T06:58:12.778Z,1.2
2019-02-26T06:59:22.298Z,0.8
2019-02-26T07:00:31.815Z,1
2019-02-26T07:01:41.949Z,1
2019-02-26T07:02:50.200Z,1
2019-02-26T07:04:00.842Z,0.7
2019-02-26T07:05:10.083Z,1
2019-02-26T07:06:22.758Z,0.9
2019-02-26T07:07:30.167Z,0.7
2019-02-26T07:08:39.688Z,1
2019-02-26T07:09:49.194Z,1.1
2019-02-26T07:10:58.711Z,0.8
2019-02-26T07:12:08.221Z,1
2019-02-26T07:13:17.722Z,1.2
2019-02-26T07:14:29.423Z,1.4
2019-02-26T07:15:37.732Z,1.3
2019-02-26T07:16:47.346Z,1.2
2019-02-26T07:18:00.034Z,0.7
2019-02-26T07:19:09.039Z,1
2019-02-26T07:20:17.833Z,1.3
2019-02-26T07:21:27.351Z,0.8
2019-02-26T07:22:36.877Z,0.9
2019-02-26T07:23:46.374Z,1.2
2019-02-26T07:24:55.868Z,0.8
2019-02-26T07:26:05.388Z,0.9
2019-02-26T07:27:14.879Z,0.9
2019-02-26T07:28:26.451Z,0.8
2019-02-26T07:29:36.869Z,0.7
2019-02-26T07:30:46.881Z,1.1
2019-02-26T07:31:56.951Z,0.9
2019-02-26T07:33:07.981Z,0.9
2019-02-26T07:34:18.228Z,1
2019-02-26T07:35:28.617Z,1.2
2019-02-26T07:36:37.823Z,1.1
2019-02-26T07:37:47.314Z,0.9
2019-02-26T07:38:56.797Z,1.3
2019-02-26T07:40:08.207Z,1.3
2019-02-26T07:41:18.775Z,1.4
2019-02-26T07:42:27.487Z,1.1
2019-02-26T07:43:40.931Z,0.9
2019-02-26T07:44:47.651Z,0.9
2019-02-26T07:45:57.306Z,0.7
2019-02-26T07:47:08.738Z,1.2
2019-02-26T07:48:20.607Z,1.3
2019-02-26T07:49:28.048Z,0.9
2019-02-26T07:50:40.092Z,0.9
2019-02-26T07:51:48.223Z,1.2
2019-02-26T07:52:59.381Z,1
2019-02-26T07:54:08.362Z,1.1
2019-02-26T07:55:17.892Z,1
2019-02-26T07:56:29.631Z,0.9
2019-02-26T07:57:40.327Z,1.2
2019-02-26T07:58:48.714Z,1.1
2019-02-26T07:59:58.218Z,1.6
2019-02-26T08:01:07.734Z,1.3
2019-02-26T08:02:17.241Z,0.9
2019-02-26T08:03:29.275Z,1.1
2019-02-26T08:04:38.868Z,0.8
2019-02-26T08:05:47.688Z,1
2019-02-26T08:06:59.088Z,1.3
2019-02-26T08:08:09.585Z,0.8
2019-02-26T08:09:19.360Z,1.2
2019-02-26T08:10:28.637Z,0.9
2019-02-26T08:11:39.106Z,1.1
2019-02-26T08:12:48.624Z,1.2
2019-02-26T08:13:59.241Z,1.1
2019-02-26T08:15:10.043Z,1.2
2019-02-26T08:16:20.650Z,1
2019-02-26T08:17:29.601Z,1.2
2019-02-26T08:18:39.109Z,0.8
2019-02-26T08:19:49.296Z,0.9
2019-02-26T08:21:00.527Z,0.9
2019-02-26T08:22:08.576Z,1.2
2019-02-26T08:23:19.733Z,0.8
2019-02-26T08:24:28.541Z,0.6
2019-02-26T08:25:38.044Z,0.9
2019-02-26T08:26:49.603Z,1.6
2019-02-26T08:27:59.198Z,1.5
2019-02-26T08:29:09.809Z,0.9
2019-02-26T08:30:20.905Z,1.4
2019-02-26T08:31:29.438Z,1
2019-02-26T08:32:39.227Z,1
2019-02-26T08:33:50.004Z,0.9
2019-02-26T08:34:59.919Z,1.7
2019-02-26T08:36:13.494Z,1.3
2019-02-26T08:37:19.946Z,1
2019-02-26T08:38:30.215Z,1.1
2019-02-26T08:39:38.933Z,1.1
2019-02-26T08:40:48.448Z,1.1
2019-02-26T08:41:58.014Z,1.2
2019-02-26T08:43:07.518Z,0.9
2019-02-26T08:44:17.030Z,1
2019-02-26T08:45:26.496Z,0.7
2019-02-26T08:46:37.774Z,1.2
2019-02-26T08:47:46.512Z,1
2019-02-26T08:48:56.024Z,1
2019-02-26T08:50:07.192Z,0.7
2019-02-26T08:51:16.911Z,0.9
2019-02-26T08:52:27.354Z,0.8
2019-02-26T08:53:36.937Z,0.9
2019-02-26T08:54:46.441Z,0.9
2019-02-26T08:55:56.712Z,1.1
2019-02-26T08:57:06.507Z,1.1
2019-02-26T08:58:16.016Z,0.8
2019-02-26T08:59:25.503Z,0.9
2019-02-26T09:00:35.018Z,1.1
2019-02-26T09:01:44.562Z,0.9
2019-02-26T09:02:56.536Z,0.7
2019-02-26T09:04:04.526Z,0.8
2019-02-26T09:05:14.022Z,0.7
2019-02-26T09:06:23.526Z,0.4
2019-02-26T09:07:33.027Z,0.9
2019-02-26T09:08:43.092Z,0.5
2019-02-26T09:09:54.882Z,0.6
2019-02-26T09:11:05.715Z,0.7
2019-02-26T09:12:15.206Z,0.7
2019-02-26T09:13:25.505Z,0.7
2019-02-26T09:14:37.527Z,0.5
2019-02-26T09:15:45.442Z,0.8
2019-02-26T09:16:56.940Z,0.9
2019-02-26T09:18:05.440Z,0.8
2019-02-26T09:19:14.956Z,0.8
2019-02-26T09:20:24.454Z,0.8
2019-02-26T09:21:34.619Z,0.8
2019-02-26T09:22:47.796Z,0.7
2019-02-26T09:23:56.980Z,0.9
2019-02-26T09:25:05.383Z,0.8
2019-02-26T09:26:14.884Z,0.8
2019-02-26T09:27:25.464Z,0.6
2019-02-26T09:28:34.872Z,0.8
2019-02-26T09:29:49.524Z,0.9
2019-02-26T09:30:56.293Z,0.9
2019-02-26T09:32:07.275Z,0.7
2019-02-26T09:33:15.905Z,0.6
2019-02-26T09:34:26.589Z,0.5
2019-02-26T09:35:35.872Z,0.6
2019-02-26T09:36:45.799Z,0.6
2019-02-26T09:37:59.096Z,0.6
2019-02-26T09:39:08.179Z,0.6
2019-02-26T09:40:17.769Z,0.4
2019-02-26T09:41:27.334Z,0.7
2019-02-26T09:42:36.829Z,0.6
2019-02-26T09:43:48.025Z,0.4
2019-02-26T09:44:57.678Z,0.4
2019-02-26T09:46:09.676Z,0.5
2019-02-26T09:47:17.787Z,0.4
2019-02-26T09:48:28.284Z,0.6
2019-02-26T09:49:37.766Z,0.5
2019-02-26T09:50:48.687Z,0.6
2019-02-26T09:51:59.036Z,0.6
2019-02-26T09:53:08.261Z,0.5
2019-02-26T09:54:20.012Z,0.5
2019-02-26T09:55:28.244Z,0.4
2019-02-26T09:56:37.763Z,0.4
2019-02-26T09:57:47.267Z,0.3
2019-02-26T09:58:56.776Z,0.4
2019-02-26T10:00:06.270Z,0.3
2019-02-26T10:01:17.947Z,0.6
2019-02-26T10:02:26.854Z,0.3
2019-02-26T10:03:39.049Z,0.4
2019-02-26T10:04:49.142Z,0.3
2019-02-26T10:05:57.954Z,0.4
2019-02-26T10:07:09.324Z,0.3
2019-02-26T10:08:19.774Z,0.2
2019-02-26T10:09:28.141Z,0.5
2019-02-26T10:10:39.743Z,0.4
2019-02-26T10:11:49.230Z,0.2
2019-02-26T10:12:59.837Z,0.2
2019-02-26T10:14:10.185Z,0.2
2019-02-26T10:15:19.556Z,0.4
2019-02-26T10:16:31.125Z,0.3
2019-02-26T10:17:40.698Z,0.3
2019-02-26T10:18:52.315Z,0.1
2019-02-26T10:20:01.730Z,0.2
2019-02-26T10:21:12.268Z,0.4
2019-02-26T10:22:21.483Z,0.3
2019-02-26T10:23:32.958Z,0.3
2019-02-26T10:24:41.450Z,0.4
2019-02-26T10:25:53.751Z,0.4
2019-02-26T10:27:03.617Z,0.2
2019-02-26T10:28:14.087Z,0.2
2019-02-26T10:29:22.439Z,0.5
2019-02-26T10:30:33.846Z,0.5
2019-02-26T10:31:42.396Z,0.3
2019-02-26T10:32:51.906Z,0.4
2019-02-26T10:34:02.982Z,0.4
2019-02-26T10:35:14.063Z,0.4
2019-02-26T10:36:22.403Z,0.3
2019-02-26T10:37:34.135Z,0.4
2019-02-26T10:38:42.425Z,0.3
2019-02-26T10:39:52.729Z,0.2
2019-02-26T10:41:02.399Z,0.4
2019-02-26T10:42:12.181Z,0.4
2019-02-26T10:43:21.493Z,0.3
2019-02-26T10:44:31.004Z,0.4
2019-02-26T10:45:42.289Z,0.3
2019-02-26T10:46:51.032Z,0.4
2019-02-26T10:48:01.627Z,0.4
2019-02-26T10:49:12.433Z,0.3
2019-02-26T10:50:22.788Z,0.5
2019-02-26T10:51:31.985Z,0.9
2019-02-26T10:52:41.480Z,0.4
2019-02-26T10:53:51.041Z,0.6
2019-02-26T10:55:00.574Z,0.6
2019-02-26T10:56:10.089Z,0.5
2019-02-26T10:57:19.586Z,0.3
2019-02-26T10:58:29.111Z,0.5
2019-02-26T10:59:38.631Z,0.4
2019-02-26T11:00:50.445Z,0.6
2019-02-26T11:02:00.734Z,0.7
2019-02-26T11:03:12.075Z,0.7
2019-02-26T11:04:19.645Z,0.4
2019-02-26T11:05:29.146Z,0.8
2019-02-26T11:06:41.224Z,0.5
2019-02-26T11:07:49.148Z,0.5
2019-02-26T11:08:59.213Z,0.6
2019-02-26T11:10:11.683Z,0.6
2019-02-26T11:11:19.650Z,0.7
2019-02-26T11:12:31.535Z,0.4
2019-02-26T11:13:40.623Z,0.5
2019-02-26T11:14:50.104Z,0.6
2019-02-26T11:16:02.881Z,0.5
2019-02-26T11:17:10.067Z,0.5
2019-02-26T11:18:21.034Z,0.6
2019-02-26T11:19:33.626Z,0.5
2019-02-26T11:20:40.529Z,0.5
2019-02-26T11:21:51.184Z,0.7
2019-02-26T11:23:00.536Z,0.6
2019-02-26T11:24:11.229Z,0.7
2019-02-26T11:25:22.093Z,0.6
2019-02-26T11:26:32.438Z,0.7
2019-02-26T11:27:43.468Z,0.8
2019-02-26T11:28:51.967Z,0.4
2019-02-26T11:30:02.828Z,0.4
2019-02-26T11:31:13.993Z,0.5
2019-02-26T11:32:22.419Z,0.8
2019-02-26T11:33:31.939Z,0.4
2019-02-26T11:34:41.421Z,0.4
2019-02-26T11:35:51.440Z,0.6
2019-02-26T11:37:01.207Z,0.2
2019-02-26T11:38:12.260Z,0.3
2019-02-26T11:39:21.444Z,0.6
2019-02-26T11:40:30.913Z,0.3
2019-02-26T11:41:40.403Z,0.5
2019-02-26T11:42:51.221Z,0.2
2019-02-26T11:44:00.389Z,0.2
2019-02-26T11:45:12.417Z,0.3
2019-02-26T11:46:22.462Z,0.2
2019-02-26T11:47:32.654Z,0.3
2019-02-26T11:48:41.440Z,0.4
2019-02-26T11:49:50.958Z,0.4
2019-02-26T11:51:00.965Z,0.5
2019-02-26T11:52:09.964Z,0.4
2019-02-26T11:53:19.469Z,0.4
2019-02-26T11:54:32.607Z,0.6
2019-02-26T11:55:39.454Z,0.4
2019-02-26T11:56:49.700Z,0.3
2019-02-26T11:57:59.460Z,0.3
2019-02-26T11:59:11.253Z,0.5
2019-02-26T12:00:25.177Z,0.5
2019-02-26T12:01:31.998Z,0.5
2019-02-26T12:02:41.540Z,0.5
2019-02-26T12:03:50.934Z,0.6
2019-02-26T12:05:02.596Z,0.4
2019-02-26T12:06:10.915Z,0.3
2019-02-26T12:07:22.212Z,0.3
2019-02-26T12:08:30.922Z,0.6
2019-02-26T12:09:41.293Z,0.3
2019-02-26T12:10:52.248Z,0.4
2019-02-26T12:12:03.277Z,0.3
2019-02-26T12:13:14.429Z,0.2
2019-02-26T12:14:22.351Z,0.5
2019-02-26T12:15:33.356Z,0.3
2019-02-26T12:16:42.356Z,0.4
2019-02-26T12:17:53.993Z,0.4
2019-02-26T12:19:03.991Z,0.3
2019-02-26T12:20:14.743Z,0.5
2019-02-26T12:21:25.165Z,0.3
2019-02-26T12:22:33.861Z,0.7
2019-02-26T12:23:44.502Z,0.5
2019-02-26T12:24:55.961Z,0.6
2019-02-26T12:26:04.322Z,0.4
2019-02-26T12:27:18.019Z,0.4
2019-02-26T12:28:25.311Z,0.4
2019-02-26T12:29:34.801Z,0.7
2019-02-26T12:30:46.565Z,0.7
2019-02-26T12:31:55.631Z,0.4
2019-02-26T12:33:07.615Z,0.7
2019-02-26T12:34:17.516Z,0.5
2019-02-26T12:35:26.264Z,0.5
2019-02-26T12:36:35.753Z,0.5
2019-02-26T12:37:47.168Z,0.4
2019-02-26T12:38:56.412Z,0.6
2019-02-26T12:40:06.266Z,0.4
2019-02-26T12:41:16.402Z,0.6
2019-02-26T12:42:26.224Z,0.7
2019-02-26T12:43:36.615Z,0.5
2019-02-26T12:44:46.188Z,0.5
2019-02-26T12:45:58.820Z,0.6
2019-02-26T12:47:06.189Z,0.8
2019-02-26T12:48:16.906Z,0.3
2019-02-26T12:49:26.191Z,0.6
2019-02-26T12:50:36.564Z,0.4
2019-02-26T12:51:47.594Z,0.4
2019-02-26T12:52:57.151Z,0.4
2019-02-26T12:54:07.023Z,0.3
2019-02-26T12:55:16.636Z,0.5
2019-02-26T12:56:27.773Z,0.5
2019-02-26T12:57:36.596Z,0.5
2019-02-26T12:58:48.265Z,0.5
2019-02-26T12:59:56.603Z,0.6
2019-02-26T13:01:06.107Z,0.5
2019-02-26T13:02:16.921Z,0.5
2019-02-26T13:03:26.068Z,0.4
2019-02-26T13:05:49.128Z,0.5
2019-02-26T13:06:56.546Z,0.6
2019-02-26T13:08:06.858Z,0.4
2019-02-26T13:09:16.534Z,0.6
2019-02-26T13:10:26.054Z,0.5
2019-02-26T13:11:35.568Z,0.4
2019-02-26T13:12:48.798Z,0.4
2019-02-26T13:13:55.536Z,0.3
2019-02-26T13:15:09.575Z,0.3
2019-02-26T13:16:16.319Z,0.2
2019-02-26T13:17:28.170Z,0.3
2019-02-26T13:18:36.319Z,0.5
2019-02-26T13:19:45.839Z,0.3
2019-02-26T13:20:59.268Z,0.6
2019-02-26T13:22:08.866Z,0.6
2019-02-26T13:24:26.929Z,0.4
2019-02-26T13:25:36.302Z,0.4
2019-02-26T13:26:48.709Z,0.3
2019-02-26T13:27:56.239Z,0.4
2019-02-26T13:29:05.716Z,0.4
2019-02-26T13:30:15.234Z,0.4
2019-02-26T13:31:24.764Z,0.3
2019-02-26T13:32:49.685Z,0.4
2019-02-26T13:33:44.818Z,0.4
2019-02-26T13:34:56.420Z,0.5
2019-02-26T13:36:04.991Z,0.3
2019-02-26T13:37:14.449Z,0.6
2019-02-26T13:38:24.753Z,0.2
2019-02-26T13:39:38.313Z,0.6
2019-02-26T13:40:44.967Z,0.4
2019-02-26T13:41:58.604Z,0.4
2019-02-26T13:44:14.432Z,0.4
2019-02-26T13:45:23.954Z,0.4
2019-02-26T13:46:33.451Z,0.2
2019-02-26T13:47:42.989Z,0.3
2019-02-26T13:48:52.487Z,0.2
2019-02-26T13:50:02.041Z,0.4
2019-02-26T13:51:12.554Z,0.7
2019-02-26T13:52:22.057Z,0.5
2019-02-26T13:53:31.561Z,0.5
2019-02-26T13:54:41.064Z,0.4
2019-02-26T13:55:50.586Z,0.3
2019-02-26T13:57:00.108Z,0.3
2019-02-26T13:58:11.332Z,0.2
2019-02-26T13:59:20.101Z,0.1
2019-02-26T14:00:29.603Z,0.2
2019-02-26T14:01:39.116Z,0.3
2019-02-26T14:02:48.620Z,0.2
2019-02-26T14:03:58.148Z,0.2
2019-02-26T14:05:07.675Z,0.2
2019-02-26T14:06:17.198Z,0.5
2019-02-26T14:07:26.710Z,0.3
2019-02-26T14:08:36.203Z,0.3
2019-02-26T14:09:45.709Z,0.1
2019-02-26T14:10:55.236Z,0.2
2019-02-26T14:12:04.740Z,0.2
2019-02-26T14:13:14.257Z,0.3
2019-02-26T14:14:23.785Z,0.3
2019-02-26T14:15:33.352Z,0.2
2019-02-26T14:16:42.829Z,0.3
2019-02-26T14:17:52.328Z,0.3
2019-02-26T14:19:01.836Z,0.5
2019-02-26T14:20:11.395Z,0.2
2019-02-26T14:21:20.908Z,0.2
2019-02-26T14:22:30.409Z,0.2
2019-02-26T14:23:39.907Z,0.3
2019-02-26T14:24:49.413Z,0.1
2019-02-26T14:25:58.930Z,0.3
2019-02-26T14:27:08.440Z,0.1
2019-02-26T14:28:17.947Z,0.1
2019-02-26T14:29:27.470Z,0.3
2019-02-26T14:30:36.998Z,0.2
2019-02-26T14:31:46.510Z,0.6
2019-02-26T14:32:56.014Z,0.1
2019-02-26T14:34:05.521Z,0.2
2019-02-26T14:35:15.343Z,0.4
2019-02-26T14:36:24.554Z,0.3
2019-02-26T14:37:34.112Z,0.1
2019-02-26T14:38:43.636Z,0.2
2019-02-26T14:39:53.107Z,0.1
2019-02-26T14:41:02.620Z,0.1
2019-02-26T14:42:12.129Z,0.1
2019-02-26T14:43:21.682Z,0.1
2019-02-26T14:44:31.184Z,0.2
2019-02-26T14:45:40.698Z,0.2
2019-02-26T14:46:50.198Z,0.1
2019-02-26T14:47:59.702Z,0.2
2019-02-26T14:49:09.211Z,0.3
2019-02-26T14:50:18.726Z,0.4
2019-02-26T14:51:28.252Z,0.2
2019-02-26T14:52:37.748Z,0.2
2019-02-26T14:53:48.681Z,0.2
2019-02-26T14:54:57.772Z,0.4
2019-02-26T14:56:07.287Z,0.3
2019-02-26T14:57:16.807Z,0.2
2019-02-26T14:58:26.308Z,0.2
2019-02-26T14:59:35.811Z,0.2
2019-02-26T15:00:45.328Z,0.3
2019-02-26T15:01:54.836Z,0.4
2019-02-26T15:03:04.374Z,0.2
2019-02-26T15:04:13.867Z,0.3
2019-02-26T15:05:23.376Z,0.3
2019-02-26T15:06:32.919Z,0.3
2019-02-26T15:07:42.420Z,0.3
2019-02-26T15:08:51.919Z,0.2
2019-02-26T15:10:01.457Z,0.4
2019-02-26T15:11:10.998Z,0.4
2019-02-26T15:12:20.501Z,0.4
2019-02-26T15:13:30.018Z,0.4
2019-02-26T15:14:39.563Z,0.4
2019-02-26T15:15:49.117Z,0.3
2019-02-26T15:16:58.662Z,0.3
2019-02-26T15:18:08.175Z,0.4
2019-02-26T15:19:17.675Z,0.3
2019-02-26T15:20:27.211Z,0.4
2019-02-26T15:21:36.716Z,0.7
2019-02-26T15:22:46.233Z,0.3
2019-02-26T15:23:55.779Z,0.4
2019-02-26T15:25:05.292Z,0.3
2019-02-26T15:26:14.834Z,0.3
2019-02-26T15:27:24.372Z,0.3
2019-02-26T15:28:33.867Z,0.4
2019-02-26T15:29:43.420Z,0.3
2019-02-26T15:30:52.915Z,0.5
2019-02-26T15:32:02.439Z,0.6
2019-02-26T15:33:11.937Z,0.7
2019-02-26T15:34:21.436Z,0.3
2019-02-26T15:35:30.974Z,0.4
2019-02-26T15:36:40.489Z,0.4
2019-02-26T15:37:50.006Z,0.4
2019-02-26T15:39:00.524Z,0.3
2019-02-26T15:40:10.027Z,0.6
2019-02-26T15:41:19.573Z,0.5
2019-02-26T15:42:29.090Z,0.6
2019-02-26T15:43:38.618Z,0.7
2019-02-26T15:44:48.121Z,0.6
2019-02-26T15:45:59.580Z,0.4
2019-02-26T15:47:09.231Z,0.5
2019-02-26T15:48:18.690Z,0.6
2019-02-26T15:49:28.207Z,0.7
2019-02-26T15:50:40.224Z,0.5
2019-02-26T15:51:48.737Z,0.4
2019-02-26T15:52:58.739Z,0.6
2019-02-26T15:54:08.261Z,0.7
2019-02-26T15:55:17.775Z,0.5
2019-02-26T15:56:29.356Z,0.6
2019-02-26T15:57:37.800Z,0.5
2019-02-26T15:58:47.360Z,0.5
2019-02-26T15:59:56.903Z,0.9
2019-02-26T16:01:06.453Z,0.4
2019-02-26T16:02:15.952Z,0.6
2019-02-26T16:03:29.256Z,0.6
2019-02-26T16:04:36.000Z,0.6
2019-02-26T16:05:45.589Z,0.8
2019-02-26T16:06:56.089Z,0.6
2019-02-26T16:08:05.599Z,0.5
2019-02-26T16:09:15.489Z,0.8
2019-02-26T16:10:24.583Z,0.6
2019-02-26T16:11:34.122Z,0.6